createdAt,value
2022-07-27T00:02:42.058Z,12.17
2022-07-27T00:05:31.615Z,10.80
2022-07-27T00:08:24.095Z,9.80
2022-07-27T00:11:13.618Z,9.50
2022-07-27T00:14:03.135Z,9.10
2022-07-27T00:16:52.753Z,9.10
2022-07-27T00:19:42.501Z,8.77
2022-07-27T00:22:32.061Z,8.60
2022-07-27T00:25:23.202Z,8.60
2022-07-27T00:28:12.720Z,8.43
2022-07-27T00:31:02.292Z,8.40
2022-07-27T00:33:51.765Z,8.30
2022-07-27T00:36:41.221Z,8.33
2022-07-27T00:39:31.830Z,8.40
2022-07-27T00:42:28.036Z,8.40
2022-07-27T00:45:17.566Z,8.40
2022-07-27T00:48:07.607Z,8.20
2022-07-27T00:50:58.028Z,8.30
2022-07-27T00:53:48.750Z,8.27
2022-07-27T00:56:38.638Z,8.53
2022-07-27T00:59:29.825Z,8.20
2022-07-27T01:02:20.050Z,8.37
2022-07-27T01:05:12.587Z,8.27
2022-07-27T01:08:02.885Z,8.40
2022-07-27T01:10:53.581Z,8.70
2022-07-27T01:13:44.352Z,8.60
2022-07-27T01:16:35.221Z,8.60
2022-07-27T01:19:24.765Z,8.50
2022-07-27T01:22:15.658Z,8.50
2022-07-27T01:25:05.965Z,8.70
2022-07-27T01:27:55.365Z,8.50
2022-07-27T01:30:45.056Z,8.40
2022-07-27T01:33:34.498Z,8.53
2022-07-27T01:36:23.958Z,8.63
2022-07-27T01:39:15.999Z,8.50
2022-07-27T01:42:06.865Z,8.57
2022-07-27T01:44:56.342Z,8.50
2022-07-27T01:47:45.821Z,8.53
2022-07-27T01:50:35.550Z,8.70
2022-07-27T01:53:25.669Z,8.60
2022-07-27T01:56:16.601Z,8.80
2022-07-27T01:59:06.137Z,8.70
2022-07-27T02:01:56.103Z,8.60
2022-07-27T02:04:45.676Z,8.50
2022-07-27T02:07:35.186Z,8.60
2022-07-27T02:10:25.358Z,8.50
2022-07-27T02:13:22.745Z,8.70
2022-07-27T02:16:17.149Z,8.30
2022-07-27T02:19:07.118Z,8.40
2022-07-27T02:21:58.323Z,8.40
2022-07-27T02:24:47.696Z,8.50
2022-07-27T02:27:37.145Z,8.50
2022-07-27T02:30:28.049Z,8.50
2022-07-27T02:33:18.143Z,8.50
2022-07-27T02:36:08.577Z,8.70
2022-07-27T02:38:58.259Z,8.50
2022-07-27T02:41:49.214Z,8.60
2022-07-27T02:44:38.593Z,8.60
2022-07-27T02:47:29.436Z,8.40
2022-07-27T02:50:18.893Z,8.80
2022-07-27T02:53:08.355Z,8.60
2022-07-27T02:55:58.725Z,8.67
2022-07-27T02:58:48.157Z,8.70
2022-07-27T03:01:38.104Z,8.50
2022-07-27T03:04:29.068Z,9.00
2022-07-27T03:07:18.563Z,8.83
2022-07-27T03:10:09.372Z,8.70
2022-07-27T03:12:59.341Z,8.60
2022-07-27T03:15:48.781Z,8.43
2022-07-27T03:18:38.360Z,8.60
2022-07-27T03:21:29.138Z,8.80
2022-07-27T03:24:18.612Z,9.00
2022-07-27T03:27:08.024Z,8.57
2022-07-27T03:29:57.920Z,8.63
2022-07-27T03:32:48.268Z,8.70
2022-07-27T03:35:37.708Z,8.43
2022-07-27T03:38:28.507Z,8.90
2022-07-27T03:41:18.323Z,9.07
2022-07-27T03:44:08.165Z,8.50
2022-07-27T03:46:57.595Z,8.60
2022-07-27T03:49:47.778Z,8.47
2022-07-27T03:52:37.201Z,8.80
2022-07-27T03:55:28.017Z,8.57
2022-07-27T03:58:18.116Z,8.77
2022-07-27T04:01:07.557Z,8.57
2022-07-27T04:03:56.971Z,8.50
2022-07-27T04:06:46.457Z,8.90
2022-07-27T04:09:37.689Z,8.57
2022-07-27T04:12:30.302Z,8.63
2022-07-27T04:15:21.549Z,9.03
2022-07-27T04:18:10.885Z,8.60
2022-07-27T04:21:03.338Z,8.87
2022-07-27T04:23:52.673Z,8.63
2022-07-27T04:26:42.082Z,9.03
2022-07-27T04:29:32.908Z,8.40
2022-07-27T04:32:23.806Z,8.57
2022-07-27T04:35:13.586Z,9.37
2022-07-27T04:38:02.956Z,14.03
2022-07-27T04:40:57.816Z,12.00
2022-07-27T04:43:47.768Z,10.87
2022-07-27T04:46:38.628Z,10.23
2022-07-27T04:49:28.177Z,9.77
2022-07-27T04:52:17.808Z,10.20
2022-07-27T04:55:08.725Z,10.60
2022-07-27T04:57:58.102Z,10.13
2022-07-27T05:00:47.655Z,9.50
2022-07-27T05:03:38.646Z,9.47
2022-07-27T05:06:28.008Z,9.60
2022-07-27T05:09:22.499Z,9.30
2022-07-27T05:12:12.202Z,9.20
2022-07-27T05:15:01.582Z,9.33
2022-07-27T05:17:52.272Z,10.27
2022-07-27T05:20:43.516Z,10.30
2022-07-27T05:23:32.904Z,10.40
2022-07-27T05:26:23.245Z,9.67
2022-07-27T05:29:13.165Z,9.77
2022-07-27T05:32:02.857Z,9.03
2022-07-27T05:34:52.288Z,9.20
2022-07-27T05:37:43.142Z,9.10
2022-07-27T05:40:33.118Z,8.87
2022-07-27T05:43:22.535Z,9.00
2022-07-27T05:46:11.978Z,8.80
2022-07-27T05:49:02.294Z,8.80
2022-07-27T05:51:52.100Z,8.63
2022-07-27T05:54:42.897Z,8.70
2022-07-27T05:57:32.406Z,8.80
2022-07-27T06:00:21.913Z,8.93
2022-07-27T06:03:11.446Z,8.97
2022-07-27T06:06:18.770Z,8.83
2022-07-27T06:09:08.393Z,8.63
2022-07-27T06:11:59.277Z,8.70
2022-07-27T06:14:51.200Z,9.17
2022-07-27T06:17:42.337Z,9.00
2022-07-27T06:20:32.295Z,9.20
2022-07-27T06:23:21.615Z,8.90
2022-07-27T06:26:11.014Z,9.13
2022-07-27T06:29:01.811Z,8.93
2022-07-27T06:31:51.330Z,9.07
2022-07-27T06:34:43.282Z,9.03
2022-07-27T06:37:32.985Z,9.10
2022-07-27T06:40:23.772Z,9.00
2022-07-27T06:43:15.049Z,8.60
2022-07-27T06:46:14.427Z,9.07
2022-07-27T06:49:04.013Z,8.80
2022-07-27T06:51:53.599Z,8.50
2022-07-27T06:54:43.488Z,8.87
2022-07-27T06:57:33.237Z,8.67
2022-07-27T07:00:23.322Z,8.57
2022-07-27T07:03:14.244Z,8.80
2022-07-27T07:06:04.025Z,9.33
2022-07-27T07:08:53.789Z,9.20
2022-07-27T07:11:43.229Z,9.20
2022-07-27T07:14:32.657Z,9.43
2022-07-27T07:17:22.112Z,9.20
2022-07-27T07:20:14.228Z,9.00
2022-07-27T07:23:04.008Z,8.70
2022-07-27T07:25:53.626Z,8.60
2022-07-27T07:28:43.263Z,8.87
2022-07-27T07:31:33.057Z,8.70
2022-07-27T07:34:22.572Z,8.60
2022-07-27T07:37:13.318Z,8.70
2022-07-27T07:43:14.592Z,8.57
2022-07-27T07:46:04.431Z,8.93
2022-07-27T07:48:54.159Z,8.80
2022-07-27T07:51:43.970Z,8.70
2022-07-27T07:54:35.020Z,8.80
2022-07-27T07:57:25.321Z,8.60
2022-07-27T08:00:16.585Z,8.70
2022-07-27T08:03:06.252Z,8.50
2022-07-27T08:05:55.804Z,8.90
2022-07-27T08:08:45.217Z,8.77
2022-07-27T08:11:36.288Z,8.80
2022-07-27T08:14:26.501Z,8.90
2022-07-27T08:17:17.141Z,8.50
2022-07-27T08:20:08.983Z,8.60
2022-07-27T08:22:58.415Z,8.50
2022-07-27T08:25:48.158Z,8.40
2022-07-27T08:28:39.025Z,8.70
2022-07-27T08:31:52.368Z,8.60
2022-07-27T08:34:37.995Z,8.40
2022-07-27T08:37:27.443Z,8.60
2022-07-27T08:43:27.736Z,8.67
2022-07-27T08:46:20.001Z,8.70
2022-07-27T08:49:10.094Z,8.60
2022-07-27T08:52:00.733Z,8.87
2022-07-27T08:54:50.954Z,9.10
2022-07-27T08:57:40.561Z,9.17
2022-07-27T09:00:30.846Z,9.07
2022-07-27T09:03:24.124Z,8.67
2022-07-27T09:06:13.730Z,8.80
2022-07-27T09:09:03.161Z,8.47
2022-07-27T09:12:11.627Z,8.90
2022-07-27T09:15:15.101Z,8.83
2022-07-27T09:18:19.859Z,8.80
2022-07-27T09:21:19.018Z,8.50
2022-07-27T09:24:23.491Z,8.30
2022-07-27T09:27:32.071Z,8.73
2022-07-27T09:30:23.390Z,8.10
2022-07-27T09:33:12.853Z,8.77
2022-07-27T09:36:02.639Z,8.70
2022-07-27T09:39:00.162Z,8.67
2022-07-27T09:41:53.827Z,8.80
2022-07-27T09:44:46.742Z,8.70
2022-07-27T09:47:42.824Z,8.80
2022-07-27T09:50:35.565Z,9.10
2022-07-27T09:53:42.272Z,8.60
2022-07-27T09:56:34.595Z,8.70
2022-07-27T09:59:24.093Z,8.80
2022-07-27T10:02:17.750Z,8.40
2022-07-27T10:05:08.557Z,8.70
2022-07-27T10:07:58.129Z,8.70
2022-07-27T10:10:48.018Z,8.70
2022-07-27T10:13:43.971Z,8.30
2022-07-27T10:16:35.728Z,8.50
2022-07-27T10:19:32.637Z,8.47
2022-07-27T10:22:54.389Z,8.20
2022-07-27T10:25:45.938Z,10.40
2022-07-27T10:28:53.127Z,14.67
2022-07-27T10:31:44.763Z,11.77
2022-07-27T10:34:38.034Z,10.27
2022-07-27T10:37:29.943Z,9.40
2022-07-27T10:40:36.528Z,9.10
2022-07-27T10:43:25.972Z,8.53
2022-07-27T10:46:21.851Z,8.50
2022-07-27T10:49:21.680Z,8.40
2022-07-27T10:52:45.068Z,8.50
2022-07-27T10:55:51.652Z,8.10
2022-07-27T10:58:49.211Z,7.90
2022-07-27T11:01:58.391Z,8.17
2022-07-27T11:04:51.728Z,7.90
2022-07-27T11:08:05.021Z,8.30
2022-07-27T11:10:56.133Z,8.10
2022-07-27T11:13:46.360Z,8.00
2022-07-27T11:16:54.752Z,8.30
2022-07-27T11:19:46.843Z,8.20
2022-07-27T11:25:59.231Z,7.90
2022-07-27T11:28:48.837Z,8.00
2022-07-27T11:31:55.263Z,8.00
2022-07-27T11:34:46.832Z,7.83
2022-07-27T11:37:36.597Z,8.10
2022-07-27T11:43:56.739Z,8.20
2022-07-27T11:46:50.814Z,8.23
2022-07-27T11:49:41.551Z,8.10
2022-07-27T11:52:31.360Z,8.73
2022-07-27T11:55:21.437Z,8.80
2022-07-27T11:58:21.533Z,8.40
2022-07-27T12:01:11.659Z,8.43
2022-07-27T12:04:16.264Z,8.20
2022-07-27T12:07:11.681Z,8.33
2022-07-27T12:10:07.893Z,8.40
2022-07-27T12:12:57.406Z,7.90
2022-07-27T12:15:57.958Z,8.00
2022-07-27T12:18:48.324Z,7.97
2022-07-27T12:21:39.322Z,8.00
2022-07-27T12:24:37.382Z,8.10
2022-07-27T12:27:29.089Z,8.40
2022-07-27T12:30:20.183Z,8.10
2022-07-27T12:33:27.203Z,8.10
2022-07-27T12:36:27.490Z,8.67
2022-07-27T12:39:29.913Z,8.70
2022-07-27T12:42:19.394Z,8.80
2022-07-27T12:45:18.796Z,8.63
2022-07-27T12:48:11.220Z,8.50
2022-07-27T12:51:03.800Z,8.83
2022-07-27T12:53:53.870Z,8.40
2022-07-27T12:56:44.776Z,8.57
2022-07-27T12:59:34.374Z,8.03
2022-07-27T13:02:23.864Z,8.17
2022-07-27T13:05:17.629Z,8.60
2022-07-27T13:08:08.199Z,8.43
2022-07-27T13:11:00.871Z,8.57
2022-07-27T13:13:51.856Z,8.40
2022-07-27T13:16:41.329Z,8.30
2022-07-27T13:19:30.943Z,8.27
2022-07-27T13:22:20.879Z,8.00
2022-07-27T13:25:16.295Z,8.37
2022-07-27T13:28:06.913Z,8.10
2022-07-27T13:30:58.072Z,8.00
2022-07-27T13:33:47.528Z,8.23
2022-07-27T13:36:40.614Z,8.13
2022-07-27T13:39:30.026Z,8.43
2022-07-27T13:42:23.951Z,8.60
2022-07-27T13:45:13.540Z,8.53
2022-07-27T13:48:04.385Z,8.37
2022-07-27T13:50:54.177Z,8.07
2022-07-27T13:53:43.630Z,8.50
2022-07-27T13:56:34.552Z,8.73
2022-07-27T13:59:24.094Z,8.60
2022-07-27T14:02:14.717Z,8.23
2022-07-27T14:05:08.648Z,8.50
2022-07-27T14:07:58.145Z,8.33
2022-07-27T14:10:48.965Z,8.37
2022-07-27T14:13:40.870Z,8.23
2022-07-27T14:16:30.309Z,8.60
2022-07-27T14:19:20.415Z,8.30
2022-07-27T14:22:12.135Z,8.37
2022-07-27T14:25:01.698Z,8.63
2022-07-27T14:27:51.286Z,8.80
2022-07-27T14:30:40.787Z,8.60
2022-07-27T14:33:36.840Z,8.80
2022-07-27T14:36:26.627Z,8.87
2022-07-27T14:39:17.895Z,8.60
2022-07-27T14:42:07.854Z,9.13
2022-07-27T14:44:57.353Z,8.40
2022-07-27T14:47:46.799Z,8.70
2022-07-27T14:50:36.290Z,8.40
2022-07-27T14:53:26.068Z,8.87
2022-07-27T14:56:17.423Z,8.60
2022-07-27T14:59:07.074Z,8.70
2022-07-27T15:01:56.445Z,8.60
2022-07-27T15:04:45.875Z,8.37
2022-07-27T15:07:36.383Z,8.40
2022-07-27T15:10:25.866Z,8.20
2022-07-27T15:13:16.652Z,8.60
2022-07-27T15:16:07.397Z,8.20
2022-07-27T15:18:56.883Z,8.30
2022-07-27T15:21:47.142Z,8.30
2022-07-27T15:24:38.469Z,8.30
2022-07-27T15:27:28.013Z,8.20
2022-07-27T15:30:19.035Z,8.30
2022-07-27T15:33:08.958Z,8.03
2022-07-27T15:35:58.450Z,8.30
2022-07-27T15:38:48.107Z,8.40
2022-07-27T15:41:39.369Z,8.13
2022-07-27T15:44:28.716Z,8.77
2022-07-27T15:47:19.558Z,8.40
2022-07-27T15:50:09.769Z,8.60
2022-07-27T15:52:59.482Z,8.30
2022-07-27T15:55:51.524Z,8.30
2022-07-27T15:58:41.133Z,8.37
2022-07-27T16:01:35.431Z,8.20
2022-07-27T16:04:27.243Z,8.30
2022-07-27T16:07:16.823Z,8.50
2022-07-27T16:10:07.698Z,8.40
2022-07-27T16:12:57.327Z,8.30
2022-07-27T16:16:04.149Z,8.10
2022-07-27T16:18:53.833Z,8.30
2022-07-27T16:21:54.179Z,8.17
2022-07-27T16:24:45.029Z,8.73
2022-07-27T16:27:34.583Z,8.13
2022-07-27T16:30:24.239Z,8.30
2022-07-27T16:33:13.653Z,8.20
2022-07-27T16:36:03.177Z,8.30
2022-07-27T16:38:54.740Z,8.67
2022-07-27T16:41:44.298Z,9.53
2022-07-27T16:44:35.615Z,9.10
2022-07-27T16:47:25.006Z,8.90
2022-07-27T16:50:14.459Z,9.60
2022-07-27T16:53:03.914Z,9.17
2022-07-27T16:55:57.693Z,8.83
2022-07-27T16:58:47.133Z,8.50
2022-07-27T17:01:36.689Z,8.40
2022-07-27T17:04:27.959Z,8.30
2022-07-27T17:07:17.573Z,8.50
2022-07-27T17:10:08.280Z,8.20
2022-07-27T17:12:59.298Z,8.57
2022-07-27T17:15:49.050Z,8.40
2022-07-27T17:18:40.444Z,8.50
2022-07-27T17:21:29.998Z,8.40
2022-07-27T17:24:19.347Z,12.63
2022-07-27T17:27:08.811Z,15.00
2022-07-27T17:29:59.512Z,11.90
2022-07-27T17:32:48.934Z,10.90
2022-07-27T17:35:38.617Z,10.30
2022-07-27T17:38:28.224Z,10.67
2022-07-27T17:41:24.114Z,11.13
2022-07-27T17:44:14.254Z,9.90
2022-07-27T17:47:05.148Z,10.10
2022-07-27T17:49:54.482Z,9.30
2022-07-27T17:52:43.964Z,9.10
2022-07-27T17:55:34.239Z,8.90
2022-07-27T17:58:30.168Z,9.07
2022-07-27T18:01:46.143Z,8.60
2022-07-27T18:04:38.762Z,8.73
2022-07-27T18:07:29.081Z,8.50
2022-07-27T18:10:27.211Z,9.00
2022-07-27T18:13:16.744Z,9.30
2022-07-27T18:16:06.463Z,8.93
2022-07-27T18:18:56.027Z,9.10
2022-07-27T18:21:46.963Z,8.83
2022-07-27T18:24:36.506Z,8.60
2022-07-27T18:27:26.128Z,8.80
2022-07-27T18:30:31.314Z,8.70
2022-07-27T18:33:36.767Z,8.90
2022-07-27T18:36:26.755Z,9.30
2022-07-27T18:39:17.591Z,10.67
2022-07-27T18:42:07.081Z,13.00
2022-07-27T18:44:56.720Z,11.20
2022-07-27T18:47:49.339Z,10.30
2022-07-27T18:50:40.207Z,9.80
2022-07-27T18:53:29.862Z,10.10
2022-07-27T18:56:21.460Z,9.40
2022-07-27T18:59:11.176Z,9.40
2022-07-27T19:02:00.870Z,9.00
2022-07-27T19:04:53.834Z,9.07
2022-07-27T19:07:44.725Z,9.20
2022-07-27T19:10:35.998Z,9.00
2022-07-27T19:13:26.804Z,9.30
2022-07-27T19:16:16.350Z,9.40
2022-07-27T19:19:11.616Z,9.40
2022-07-27T19:22:03.755Z,9.10
2022-07-27T19:24:55.053Z,9.23
2022-07-27T19:27:45.326Z,9.17
2022-07-27T19:30:38.743Z,9.20
2022-07-27T19:33:28.167Z,9.10
2022-07-27T19:36:17.742Z,9.33
2022-07-27T19:39:08.274Z,8.87
2022-07-27T19:41:57.952Z,8.93
2022-07-27T19:44:47.796Z,8.90
2022-07-27T19:47:38.684Z,8.80
2022-07-27T19:50:28.228Z,8.83
2022-07-27T19:53:18.596Z,9.00
2022-07-27T19:56:08.048Z,8.70
2022-07-27T19:58:57.539Z,8.70
2022-07-27T20:01:47.852Z,9.00
2022-07-27T20:04:41.430Z,9.20
2022-07-27T20:07:30.995Z,8.80
2022-07-27T20:10:21.622Z,8.83
2022-07-27T20:13:11.197Z,9.33
2022-07-27T20:16:00.671Z,9.13
2022-07-27T20:18:50.179Z,8.80
2022-07-27T20:21:41.086Z,8.67
2022-07-27T20:24:30.539Z,8.70
2022-07-27T20:27:20.365Z,8.90
2022-07-27T20:30:12.446Z,9.10
2022-07-27T20:33:02.434Z,9.03
2022-07-27T20:35:51.800Z,9.30
2022-07-27T20:38:42.917Z,8.93
2022-07-27T20:41:32.304Z,9.50
2022-07-27T20:44:21.988Z,8.90
2022-07-27T20:47:12.268Z,9.30
2022-07-27T20:50:01.645Z,9.70
2022-07-27T20:52:51.050Z,10.23
2022-07-27T20:55:42.816Z,9.80
2022-07-27T20:58:33.270Z,9.57
2022-07-27T21:01:23.039Z,9.40
2022-07-27T21:04:12.491Z,9.13
2022-07-27T21:07:01.834Z,9.20
2022-07-27T21:09:51.293Z,9.40
2022-07-27T21:12:42.153Z,9.50
2022-07-27T21:15:33.829Z,9.20
2022-07-27T21:18:23.694Z,9.43
2022-07-27T21:21:13.135Z,9.50
2022-07-27T21:24:19.920Z,9.27
2022-07-27T21:27:09.422Z,9.00
2022-07-27T21:30:00.242Z,9.37
2022-07-27T21:32:49.735Z,9.17
2022-07-27T21:35:39.702Z,9.70
2022-07-27T21:38:29.118Z,9.50
2022-07-27T21:41:18.540Z,9.37
2022-07-27T21:44:08.098Z,9.37
2022-07-27T21:46:58.971Z,10.13
2022-07-27T21:49:50.069Z,9.80
2022-07-27T21:52:39.578Z,9.93
2022-07-27T21:55:28.942Z,10.47
2022-07-27T21:58:18.382Z,10.60
2022-07-27T22:01:09.153Z,11.00
2022-07-27T22:04:00.090Z,10.17
2022-07-27T22:06:49.529Z,10.70
2022-07-27T22:09:42.366Z,10.47
2022-07-27T22:12:33.557Z,10.80
2022-07-27T22:15:22.909Z,10.87
2022-07-27T22:18:12.315Z,10.43
2022-07-27T22:21:03.133Z,10.43
2022-07-27T22:23:52.589Z,9.90
2022-07-27T22:26:42.003Z,9.93
2022-07-27T22:29:31.377Z,9.50
2022-07-27T22:32:22.920Z,9.30
2022-07-27T22:35:12.489Z,9.27
2022-07-27T22:38:03.382Z,9.50
2022-07-27T22:40:52.743Z,9.30
2022-07-27T22:43:42.216Z,9.33
2022-07-27T22:46:31.687Z,8.93
2022-07-27T22:49:22.704Z,8.97
2022-07-27T22:52:12.438Z,8.83
2022-07-27T22:55:04.520Z,8.93
2022-07-27T22:57:53.902Z,9.00
2022-07-27T23:00:43.366Z,8.70
2022-07-27T23:03:32.732Z,9.07
2022-07-27T23:06:22.115Z,9.10
2022-07-27T23:09:12.311Z,8.73
2022-07-27T23:12:03.232Z,8.80
2022-07-27T23:14:52.651Z,9.00
2022-07-27T23:17:41.959Z,8.73
2022-07-27T23:20:31.291Z,8.80
2022-07-27T23:23:21.722Z,8.80
2022-07-27T23:26:11.045Z,8.80
2022-07-27T23:29:02.130Z,8.63
2022-07-27T23:31:51.534Z,8.90
2022-07-27T23:34:41.098Z,8.90
2022-07-27T23:37:30.467Z,8.90
2022-07-27T23:40:20.023Z,9.07
2022-07-27T23:43:09.315Z,8.70
2022-07-27T23:46:00.171Z,9.03
2022-07-27T23:48:49.814Z,8.87
2022-07-27T23:51:39.180Z,8.93
2022-07-27T23:54:28.549Z,9.00
2022-07-27T23:57:17.777Z,9.20
